sensor_id;sensor_type;location;lat;lon;timestamp;P1;P2;P0
45700;PMS5003;36277;32.852;-116.998;2022-11-04T00:01:47;0.00;0.00;0.00
45700;PMS5003;36277;32.852;-116.998;2022-11-04T00:04:15;0.00;0.00;0.00
45700;PMS5003;36277;32.852;-116.998;2022-11-04T00:06:42;0.00;0.00;0.00
45700;PMS5003;36277;32.852;-116.998;2022-11-04T00:09:10;0.00;0.00;0.00
45700;PMS5003;36277;32.852;-116.998;2022-11-04T00:11:38;0.00;0.00;0.00
45700;PMS5003;36277;32.852;-116.998;2022-11-04T00:14:22;0.00;0.00;0.00
45700;PMS5003;36277;32.852;-116.998;2022-11-04T00:16:49;0.00;0.00;0.00
45700;PMS5003;36277;32.852;-116.998;2022-11-04T00:19:33;0.00;0.00;0.00
45700;PMS5003;36277;32.852;-116.998;2022-11-04T00:22:18;0.00;0.00;0.00
45700;PMS5003;36277;32.852;-116.998;2022-11-04T00:25:03;0.00;0.00;0.00
45700;PMS5003;36277;32.852;-116.998;2022-11-04T00:27:48;0.00;0.00;0.00
45700;PMS5003;36277;32.852;-116.998;2022-11-04T00:30:32;0.00;0.00;0.00
45700;PMS5003;36277;32.852;-116.998;2022-11-04T00:32:59;0.00;0.00;0.00
45700;PMS5003;36277;32.852;-116.998;2022-11-04T00:35:49;0.00;0.00;0.00
45700;PMS5003;36277;32.852;-116.998;2022-11-04T00:38:17;0.00;0.00;0.00
45700;PMS5003;36277;32.852;-116.998;2022-11-04T00:40:43;0.00;0.00;0.00
45700;PMS5003;36277;32.852;-116.998;2022-11-04T00:43:10;0.00;0.00;0.00
45700;PMS5003;36277;32.852;-116.998;2022-11-04T00:45:36;0.00;0.00;0.00
45700;PMS5003;36277;32.852;-116.998;2022-11-04T00:48:02;0.00;0.00;0.00
45700;PMS5003;36277;32.852;-116.998;2022-11-04T00:50:29;0.00;0.00;0.00
45700;PMS5003;36277;32.852;-116.998;2022-11-04T00:52:59;0.00;0.00;0.00
45700;PMS5003;36277;32.852;-116.998;2022-11-04T00:55:27;0.00;0.00;0.00
45700;PMS5003;36277;32.852;-116.998;2022-11-04T00:57:54;0.00;0.00;0.00
45700;PMS5003;36277;32.852;-116.998;2022-11-04T01:00:20;0.00;0.00;0.00
45700;PMS5003;36277;32.852;-116.998;2022-11-04T01:02:46;0.00;0.00;0.00
45700;PMS5003;36277;32.852;-116.998;2022-11-04T01:05:13;0.00;0.00;0.00
45700;PMS5003;36277;32.852;-116.998;2022-11-04T01:07:40;0.00;0.00;0.00
45700;PMS5003;36277;32.852;-116.998;2022-11-04T01:10:06;0.00;0.00;0.00
45700;PMS5003;36277;32.852;-116.998;2022-11-04T01:12:33;1.00;1.00;1.00
45700;PMS5003;36277;32.852;-116.998;2022-11-04T01:14:59;0.00;0.00;0.00
45700;PMS5003;36277;32.852;-116.998;2022-11-04T01:17:25;0.20;0.20;0.20
45700;PMS5003;36277;32.852;-116.998;2022-11-04T01:19:52;0.00;0.00;0.00
45700;PMS5003;36277;32.852;-116.998;2022-11-04T01:22:18;0.00;0.00;0.00
45700;PMS5003;36277;32.852;-116.998;2022-11-04T01:24:44;0.00;0.00;0.00
45700;PMS5003;36277;32.852;-116.998;2022-11-04T01:27:11;0.00;0.00;0.00
45700;PMS5003;36277;32.852;-116.998;2022-11-04T01:29:37;0.00;0.00;0.00
45700;PMS5003;36277;32.852;-116.998;2022-11-04T01:32:03;0.00;0.00;0.00
45700;PMS5003;36277;32.852;-116.998;2022-11-04T01:34:30;0.00;0.00;0.00
45700;PMS5003;36277;32.852;-116.998;2022-11-04T01:36:56;0.00;0.00;0.00
45700;PMS5003;36277;32.852;-116.998;2022-11-04T01:39:22;0.00;0.00;0.00
45700;PMS5003;36277;32.852;-116.998;2022-11-04T01:41:51;0.00;0.00;0.00
45700;PMS5003;36277;32.852;-116.998;2022-11-04T01:47:08;0.00;0.00;0.00
45700;PMS5003;36277;32.852;-116.998;2022-11-04T01:49:44;0.00;0.00;0.00
45700;PMS5003;36277;32.852;-116.998;2022-11-04T01:52:18;0.00;0.00;0.00
45700;PMS5003;36277;32.852;-116.998;2022-11-04T01:55:02;0.00;0.00;0.00
45700;PMS5003;36277;32.852;-116.998;2022-11-04T01:57:35;0.00;0.00;0.00
45700;PMS5003;36277;32.852;-116.998;2022-11-04T02:00:06;0.00;0.00;0.00
45700;PMS5003;36277;32.852;-116.998;2022-11-04T02:02:52;0.20;0.20;0.00
45700;PMS5003;36277;32.852;-116.998;2022-11-04T02:05:19;1.20;1.20;1.00
45700;PMS5003;36277;32.852;-116.998;2022-11-04T02:07:48;3.40;3.40;2.00
45700;PMS5003;36277;32.852;-116.998;2022-11-04T02:10:18;4.20;4.20;2.60
45700;PMS5003;36277;32.852;-116.998;2022-11-04T02:12:48;4.80;4.80;3.00
45700;PMS5003;36277;32.852;-116.998;2022-11-04T02:15:15;2.20;2.20;1.40
45700;PMS5003;36277;32.852;-116.998;2022-11-04T02:29:15;15.00;15.00;7.00
45700;PMS5003;36277;32.852;-116.998;2022-11-04T02:32:18;10.00;10.00;5.60
45700;PMS5003;36277;32.852;-116.998;2022-11-04T02:35:00;12.40;12.00;5.00
45700;PMS5003;36277;32.852;-116.998;2022-11-04T02:37:53;11.20;11.00;6.40
45700;PMS5003;36277;32.852;-116.998;2022-11-04T02:45:51;10.20;10.20;5.00
45700;PMS5003;36277;32.852;-116.998;2022-11-04T02:48:32;6.00;6.00;2.80
45700;PMS5003;36277;32.852;-116.998;2022-11-04T02:51:17;7.40;7.40;4.00
45700;PMS5003;36277;32.852;-116.998;2022-11-04T02:56:33;10.20;9.80;4.20
45700;PMS5003;36277;32.852;-116.998;2022-11-04T02:59:06;7.60;7.40;3.40
45700;PMS5003;36277;32.852;-116.998;2022-11-04T03:01:40;4.60;4.60;1.80
45700;PMS5003;36277;32.852;-116.998;2022-11-04T03:04:17;9.40;9.40;4.00
45700;PMS5003;36277;32.852;-116.998;2022-11-04T03:06:49;6.20;6.20;3.40
45700;PMS5003;36277;32.852;-116.998;2022-11-04T03:09:18;8.60;8.00;3.40
45700;PMS5003;36277;32.852;-116.998;2022-11-04T03:11:52;10.40;10.40;5.60
45700;PMS5003;36277;32.852;-116.998;2022-11-04T03:14:45;9.00;8.80;4.40
45700;PMS5003;36277;32.852;-116.998;2022-11-04T03:17:25;13.60;12.60;5.60
45700;PMS5003;36277;32.852;-116.998;2022-11-04T03:20:02;7.40;7.40;4.40
45700;PMS5003;36277;32.852;-116.998;2022-11-04T03:22:34;13.20;13.20;6.40
45700;PMS5003;36277;32.852;-116.998;2022-11-04T03:25:03;15.40;14.60;7.20
45700;PMS5003;36277;32.852;-116.998;2022-11-04T03:30:15;15.80;15.00;7.60
45700;PMS5003;36277;32.852;-116.998;2022-11-04T03:32:51;12.60;12.60;5.60
45700;PMS5003;36277;32.852;-116.998;2022-11-04T03:35:22;15.80;15.80;8.80
45700;PMS5003;36277;32.852;-116.998;2022-11-04T03:37:50;13.20;13.20;5.40
45700;PMS5003;36277;32.852;-116.998;2022-11-04T03:40:17;13.60;13.60;7.40
45700;PMS5003;36277;32.852;-116.998;2022-11-04T03:42:47;14.00;14.00;6.40
45700;PMS5003;36277;32.852;-116.998;2022-11-04T03:45:24;12.40;12.40;7.20
45700;PMS5003;36277;32.852;-116.998;2022-11-04T03:47:51;12.00;12.00;6.80
45700;PMS5003;36277;32.852;-116.998;2022-11-04T03:52:44;13.80;13.40;5.40
45700;PMS5003;36277;32.852;-116.998;2022-11-04T03:55:11;11.80;11.40;6.40
45700;PMS5003;36277;32.852;-116.998;2022-11-04T04:00:20;10.00;10.00;5.60
45700;PMS5003;36277;32.852;-116.998;2022-11-04T04:02:54;12.60;12.60;7.00
45700;PMS5003;36277;32.852;-116.998;2022-11-04T04:08:25;9.20;9.00;5.00
45700;PMS5003;36277;32.852;-116.998;2022-11-04T04:11:14;8.20;8.00;3.40
45700;PMS5003;36277;32.852;-116.998;2022-11-04T04:19:09;6.40;6.40;4.20
45700;PMS5003;36277;32.852;-116.998;2022-11-04T04:21:44;10.20;10.20;5.00
45700;PMS5003;36277;32.852;-116.998;2022-11-04T04:24:11;11.80;11.80;6.00
45700;PMS5003;36277;32.852;-116.998;2022-11-04T04:26:59;25.00;24.20;12.80
45700;PMS5003;36277;32.852;-116.998;2022-11-04T04:29:45;10.40;10.40;5.20
45700;PMS5003;36277;32.852;-116.998;2022-11-04T04:32:15;15.40;15.00;8.00
45700;PMS5003;36277;32.852;-116.998;2022-11-04T04:34:42;15.00;14.60;8.00
45700;PMS5003;36277;32.852;-116.998;2022-11-04T04:37:19;12.40;12.40;6.80
45700;PMS5003;36277;32.852;-116.998;2022-11-04T04:40:07;13.20;13.20;7.20
45700;PMS5003;36277;32.852;-116.998;2022-11-04T04:42:56;11.80;11.60;4.00
45700;PMS5003;36277;32.852;-116.998;2022-11-04T04:45:41;10.60;10.60;5.60
45700;PMS5003;36277;32.852;-116.998;2022-11-04T04:48:12;9.60;9.60;5.60
45700;PMS5003;36277;32.852;-116.998;2022-11-04T04:50:40;10.60;10.60;5.60
45700;PMS5003;36277;32.852;-116.998;2022-11-04T04:53:12;8.00;8.00;4.00
45700;PMS5003;36277;32.852;-116.998;2022-11-04T04:55:39;11.60;11.60;7.80
45700;PMS5003;36277;32.852;-116.998;2022-11-04T04:58:05;8.80;8.80;5.00
45700;PMS5003;36277;32.852;-116.998;2022-11-04T05:00:31;10.00;10.00;5.80
45700;PMS5003;36277;32.852;-116.998;2022-11-04T05:02:58;8.20;8.20;5.80
45700;PMS5003;36277;32.852;-116.998;2022-11-04T05:05:24;7.00;7.00;5.00
45700;PMS5003;36277;32.852;-116.998;2022-11-04T05:07:50;11.60;11.40;5.80
45700;PMS5003;36277;32.852;-116.998;2022-11-04T05:10:16;15.40;15.40;8.20
45700;PMS5003;36277;32.852;-116.998;2022-11-04T05:12:43;15.40;15.40;8.00
45700;PMS5003;36277;32.852;-116.998;2022-11-04T05:15:28;10.80;10.20;5.40
45700;PMS5003;36277;32.852;-116.998;2022-11-04T05:17:56;14.60;14.60;8.60
45700;PMS5003;36277;32.852;-116.998;2022-11-04T05:20:24;13.20;12.60;8.00
45700;PMS5003;36277;32.852;-116.998;2022-11-04T05:22:51;13.20;13.20;7.00
45700;PMS5003;36277;32.852;-116.998;2022-11-04T05:25:18;13.60;13.60;9.00
45700;PMS5003;36277;32.852;-116.998;2022-11-04T05:27:45;11.40;11.40;6.00
45700;PMS5003;36277;32.852;-116.998;2022-11-04T05:30:11;12.20;11.20;7.00
45700;PMS5003;36277;32.852;-116.998;2022-11-04T05:32:37;12.80;12.80;8.00
45700;PMS5003;36277;32.852;-116.998;2022-11-04T05:35:03;13.80;13.80;8.00
45700;PMS5003;36277;32.852;-116.998;2022-11-04T05:37:30;14.40;14.40;9.20
45700;PMS5003;36277;32.852;-116.998;2022-11-04T05:39:56;13.00;13.00;7.20
45700;PMS5003;36277;32.852;-116.998;2022-11-04T05:42:22;12.20;12.20;7.40
45700;PMS5003;36277;32.852;-116.998;2022-11-04T05:44:48;18.60;17.20;9.40
45700;PMS5003;36277;32.852;-116.998;2022-11-04T05:47:14;17.00;15.80;9.20
45700;PMS5003;36277;32.852;-116.998;2022-11-04T05:49:41;13.60;13.60;7.00
45700;PMS5003;36277;32.852;-116.998;2022-11-04T05:52:07;17.80;17.40;8.60
45700;PMS5003;36277;32.852;-116.998;2022-11-04T05:54:35;17.60;17.40;10.20
45700;PMS5003;36277;32.852;-116.998;2022-11-04T05:57:03;13.80;13.80;7.80
45700;PMS5003;36277;32.852;-116.998;2022-11-04T05:59:29;16.60;16.60;10.00
45700;PMS5003;36277;32.852;-116.998;2022-11-04T06:01:56;15.40;15.20;8.00
45700;PMS5003;36277;32.852;-116.998;2022-11-04T06:04:22;15.40;15.40;7.80
45700;PMS5003;36277;32.852;-116.998;2022-11-04T06:06:48;17.40;15.20;8.00
45700;PMS5003;36277;32.852;-116.998;2022-11-04T06:09:14;16.00;16.00;8.00
45700;PMS5003;36277;32.852;-116.998;2022-11-04T06:11:41;16.20;16.20;8.40
45700;PMS5003;36277;32.852;-116.998;2022-11-04T06:14:08;7.60;7.60;5.00
45700;PMS5003;36277;32.852;-116.998;2022-11-04T06:16:34;11.20;11.00;6.00
45700;PMS5003;36277;32.852;-116.998;2022-11-04T06:19:00;12.00;11.60;7.80
45700;PMS5003;36277;32.852;-116.998;2022-11-04T06:21:30;12.00;12.00;6.20
45700;PMS5003;36277;32.852;-116.998;2022-11-04T06:23:58;10.00;10.00;6.00
45700;PMS5003;36277;32.852;-116.998;2022-11-04T06:26:26;12.20;11.60;7.20
45700;PMS5003;36277;32.852;-116.998;2022-11-04T06:28:55;9.20;9.00;6.60
45700;PMS5003;36277;32.852;-116.998;2022-11-04T06:31:22;10.80;10.60;6.20
45700;PMS5003;36277;32.852;-116.998;2022-11-04T06:33:48;11.00;9.80;5.20
45700;PMS5003;36277;32.852;-116.998;2022-11-04T06:36:14;8.80;8.80;6.00
45700;PMS5003;36277;32.852;-116.998;2022-11-04T06:38:41;10.80;10.40;6.00
45700;PMS5003;36277;32.852;-116.998;2022-11-04T06:41:09;9.00;8.00;5.80
45700;PMS5003;36277;32.852;-116.998;2022-11-04T06:43:37;8.40;8.40;5.40
45700;PMS5003;36277;32.852;-116.998;2022-11-04T06:46:04;9.60;9.60;5.60
45700;PMS5003;36277;32.852;-116.998;2022-11-04T06:48:30;9.20;9.20;4.20
45700;PMS5003;36277;32.852;-116.998;2022-11-04T06:51:00;7.60;7.60;4.00
45700;PMS5003;36277;32.852;-116.998;2022-11-04T06:53:27;9.00;9.00;5.40
45700;PMS5003;36277;32.852;-116.998;2022-11-04T06:55:59;7.20;7.20;4.80
45700;PMS5003;36277;32.852;-116.998;2022-11-04T06:58:28;7.60;7.60;4.00
45700;PMS5003;36277;32.852;-116.998;2022-11-04T07:00:54;8.00;8.00;5.00
45700;PMS5003;36277;32.852;-116.998;2022-11-04T07:03:20;7.20;7.20;4.00
45700;PMS5003;36277;32.852;-116.998;2022-11-04T07:05:47;6.20;6.00;3.20
45700;PMS5003;36277;32.852;-116.998;2022-11-04T07:08:13;7.40;7.40;4.40
45700;PMS5003;36277;32.852;-116.998;2022-11-04T07:10:39;6.00;6.00;4.00
45700;PMS5003;36277;32.852;-116.998;2022-11-04T07:13:06;7.20;7.20;5.00
45700;PMS5003;36277;32.852;-116.998;2022-11-04T07:15:32;8.60;8.60;5.00
45700;PMS5003;36277;32.852;-116.998;2022-11-04T07:17:59;2.80;2.80;2.00
45700;PMS5003;36277;32.852;-116.998;2022-11-04T07:20:25;5.60;5.60;4.00
45700;PMS5003;36277;32.852;-116.998;2022-11-04T07:22:55;6.40;6.20;3.80
45700;PMS5003;36277;32.852;-116.998;2022-11-04T07:25:21;3.80;3.80;2.40
45700;PMS5003;36277;32.852;-116.998;2022-11-04T07:27:48;7.80;7.80;4.60
45700;PMS5003;36277;32.852;-116.998;2022-11-04T07:30:14;6.00;5.80;2.60
45700;PMS5003;36277;32.852;-116.998;2022-11-04T07:32:40;7.60;7.60;5.20
45700;PMS5003;36277;32.852;-116.998;2022-11-04T07:35:07;5.20;5.20;3.20
45700;PMS5003;36277;32.852;-116.998;2022-11-04T07:37:33;4.80;4.80;3.40
45700;PMS5003;36277;32.852;-116.998;2022-11-04T07:39:59;4.80;4.80;2.80
45700;PMS5003;36277;32.852;-116.998;2022-11-04T07:42:26;3.60;3.60;3.20
45700;PMS5003;36277;32.852;-116.998;2022-11-04T07:44:52;5.00;5.00;4.00
45700;PMS5003;36277;32.852;-116.998;2022-11-04T07:47:18;3.20;3.20;2.00
45700;PMS5003;36277;32.852;-116.998;2022-11-04T07:49:44;2.40;2.40;1.00
45700;PMS5003;36277;32.852;-116.998;2022-11-04T07:52:10;5.80;5.80;3.40
45700;PMS5003;36277;32.852;-116.998;2022-11-04T07:54:37;4.00;4.00;3.00
45700;PMS5003;36277;32.852;-116.998;2022-11-04T07:57:03;3.00;3.00;2.00
45700;PMS5003;36277;32.852;-116.998;2022-11-04T07:59:29;1.60;1.60;0.00
45700;PMS5003;36277;32.852;-116.998;2022-11-04T08:01:55;5.80;5.80;3.00
45700;PMS5003;36277;32.852;-116.998;2022-11-04T08:04:21;4.20;4.20;2.40
45700;PMS5003;36277;32.852;-116.998;2022-11-04T08:06:51;4.00;4.00;2.60
45700;PMS5003;36277;32.852;-116.998;2022-11-04T08:09:17;3.40;3.40;2.20
45700;PMS5003;36277;32.852;-116.998;2022-11-04T08:11:43;3.00;3.00;2.00
45700;PMS5003;36277;32.852;-116.998;2022-11-04T08:14:10;5.00;4.80;3.00
45700;PMS5003;36277;32.852;-116.998;2022-11-04T08:16:36;5.40;5.40;3.20
45700;PMS5003;36277;32.852;-116.998;2022-11-04T08:19:05;4.00;4.00;2.60
45700;PMS5003;36277;32.852;-116.998;2022-11-04T08:21:31;3.00;3.00;3.00
45700;PMS5003;36277;32.852;-116.998;2022-11-04T08:23:58;3.40;3.40;2.00
45700;PMS5003;36277;32.852;-116.998;2022-11-04T08:26:28;3.40;3.40;2.20
45700;PMS5003;36277;32.852;-116.998;2022-11-04T08:28:54;3.00;3.00;2.00
45700;PMS5003;36277;32.852;-116.998;2022-11-04T08:31:22;2.00;2.00;1.60
45700;PMS5003;36277;32.852;-116.998;2022-11-04T08:33:50;2.60;2.60;2.00
45700;PMS5003;36277;32.852;-116.998;2022-11-04T08:36:28;3.00;3.00;2.00
45700;PMS5003;36277;32.852;-116.998;2022-11-04T08:38:56;1.00;1.00;1.00
45700;PMS5003;36277;32.852;-116.998;2022-11-04T08:41:24;0.00;0.00;0.00
45700;PMS5003;36277;32.852;-116.998;2022-11-04T08:43:54;2.40;2.40;1.20
45700;PMS5003;36277;32.852;-116.998;2022-11-04T08:46:21;2.40;2.40;2.00
45700;PMS5003;36277;32.852;-116.998;2022-11-04T08:48:47;4.00;4.00;3.00
45700;PMS5003;36277;32.852;-116.998;2022-11-04T08:51:15;2.00;2.00;1.40
45700;PMS5003;36277;32.852;-116.998;2022-11-04T08:53:43;2.60;2.60;1.00
45700;PMS5003;36277;32.852;-116.998;2022-11-04T08:56:14;2.00;2.00;2.00
45700;PMS5003;36277;32.852;-116.998;2022-11-04T08:58:42;1.80;1.00;0.00
45700;PMS5003;36277;32.852;-116.998;2022-11-04T09:01:09;1.80;1.80;1.00
45700;PMS5003;36277;32.852;-116.998;2022-11-04T09:03:36;2.40;2.40;1.00
45700;PMS5003;36277;32.852;-116.998;2022-11-04T09:06:04;2.80;2.80;1.00
45700;PMS5003;36277;32.852;-116.998;2022-11-04T09:08:33;2.00;2.00;1.80
45700;PMS5003;36277;32.852;-116.998;2022-11-04T09:11:04;2.00;2.00;1.00
45700;PMS5003;36277;32.852;-116.998;2022-11-04T09:13:32;1.00;1.00;0.20
45700;PMS5003;36277;32.852;-116.998;2022-11-04T09:15:58;2.00;2.00;1.40
45700;PMS5003;36277;32.852;-116.998;2022-11-04T09:18:24;1.40;1.40;1.00
45700;PMS5003;36277;32.852;-116.998;2022-11-04T09:20:50;2.00;2.00;1.00
45700;PMS5003;36277;32.852;-116.998;2022-11-04T09:23:17;1.00;1.00;1.00
45700;PMS5003;36277;32.852;-116.998;2022-11-04T09:25:43;1.60;1.60;1.00
45700;PMS5003;36277;32.852;-116.998;2022-11-04T09:28:09;1.40;1.40;1.00
45700;PMS5003;36277;32.852;-116.998;2022-11-04T09:30:36;1.00;1.00;0.80
45700;PMS5003;36277;32.852;-116.998;2022-11-04T09:33:03;1.20;1.20;1.00
45700;PMS5003;36277;32.852;-116.998;2022-11-04T09:35:29;1.00;1.00;0.60
45700;PMS5003;36277;32.852;-116.998;2022-11-04T09:37:55;2.00;2.00;1.60
45700;PMS5003;36277;32.852;-116.998;2022-11-04T09:40:25;1.00;1.00;0.60
45700;PMS5003;36277;32.852;-116.998;2022-11-04T09:45:33;1.00;1.00;1.00
45700;PMS5003;36277;32.852;-116.998;2022-11-04T09:48:06;1.00;1.00;1.00
45700;PMS5003;36277;32.852;-116.998;2022-11-04T09:50:46;0.80;0.80;0.40
45700;PMS5003;36277;32.852;-116.998;2022-11-04T09:53:23;1.00;1.00;1.00
45700;PMS5003;36277;32.852;-116.998;2022-11-04T09:58:42;1.00;1.00;0.60
45700;PMS5003;36277;32.852;-116.998;2022-11-04T10:03:57;1.00;1.00;1.00
45700;PMS5003;36277;32.852;-116.998;2022-11-04T10:26:13;1.00;1.00;0.00
45700;PMS5003;36277;32.852;-116.998;2022-11-04T10:28:53;1.00;1.00;1.00
45700;PMS5003;36277;32.852;-116.998;2022-11-04T10:31:37;0.00;0.00;0.00
45700;PMS5003;36277;32.852;-116.998;2022-11-04T10:34:05;0.00;0.00;0.00
45700;PMS5003;36277;32.852;-116.998;2022-11-04T10:36:39;0.00;0.00;0.00
45700;PMS5003;36277;32.852;-116.998;2022-11-04T10:39:11;0.00;0.00;0.00
45700;PMS5003;36277;32.852;-116.998;2022-11-04T10:41:50;1.00;1.00;1.00
45700;PMS5003;36277;32.852;-116.998;2022-11-04T10:44:24;1.00;1.00;0.60
45700;PMS5003;36277;32.852;-116.998;2022-11-04T10:49:40;1.00;1.00;0.00
45700;PMS5003;36277;32.852;-116.998;2022-11-04T10:52:07;0.20;0.20;0.00
45700;PMS5003;36277;32.852;-116.998;2022-11-04T10:54:39;0.00;0.00;0.00
45700;PMS5003;36277;32.852;-116.998;2022-11-04T10:57:07;0.60;0.60;0.20
45700;PMS5003;36277;32.852;-116.998;2022-11-04T11:02:17;0.80;0.80;0.00
45700;PMS5003;36277;32.852;-116.998;2022-11-04T11:04:44;0.40;0.40;0.00
45700;PMS5003;36277;32.852;-116.998;2022-11-04T11:07:12;0.00;0.00;0.00
45700;PMS5003;36277;32.852;-116.998;2022-11-04T11:12:22;1.00;1.00;1.00
45700;PMS5003;36277;32.852;-116.998;2022-11-04T11:17:51;0.00;0.00;0.00
45700;PMS5003;36277;32.852;-116.998;2022-11-04T11:20:24;0.00;0.00;0.00
45700;PMS5003;36277;32.852;-116.998;2022-11-04T11:22:51;1.00;1.00;1.00
45700;PMS5003;36277;32.852;-116.998;2022-11-04T11:28:10;0.60;0.60;0.00
45700;PMS5003;36277;32.852;-116.998;2022-11-04T11:35:49;0.00;0.00;0.00
45700;PMS5003;36277;32.852;-116.998;2022-11-04T11:38:25;1.00;1.00;0.60
45700;PMS5003;36277;32.852;-116.998;2022-11-04T11:41:10;0.00;0.00;0.00
45700;PMS5003;36277;32.852;-116.998;2022-11-04T11:43:41;0.00;0.00;0.00
45700;PMS5003;36277;32.852;-116.998;2022-11-04T11:46:11;0.00;0.00;0.00
45700;PMS5003;36277;32.852;-116.998;2022-11-04T11:48:42;1.00;1.00;1.00
45700;PMS5003;36277;32.852;-116.998;2022-11-04T11:51:16;0.00;0.00;0.00
45700;PMS5003;36277;32.852;-116.998;2022-11-04T11:56:41;0.00;0.00;0.00
45700;PMS5003;36277;32.852;-116.998;2022-11-04T12:05:01;0.00;0.00;0.00
45700;PMS5003;36277;32.852;-116.998;2022-11-04T12:10:16;0.40;0.40;0.00
45700;PMS5003;36277;32.852;-116.998;2022-11-04T12:13:14;0.00;0.00;0.00
45700;PMS5003;36277;32.852;-116.998;2022-11-04T12:18:53;0.00;0.00;0.00
45700;PMS5003;36277;32.852;-116.998;2022-11-04T12:21:25;0.00;0.00;0.00
45700;PMS5003;36277;32.852;-116.998;2022-11-04T12:37:55;0.00;0.00;0.00
45700;PMS5003;36277;32.852;-116.998;2022-11-04T12:40:50;0.00;0.00;0.00
45700;PMS5003;36277;32.852;-116.998;2022-11-04T12:43:26;0.00;0.00;0.00
45700;PMS5003;36277;32.852;-116.998;2022-11-04T12:46:09;0.00;0.00;0.00
45700;PMS5003;36277;32.852;-116.998;2022-11-04T12:56:21;0.00;0.00;0.00
45700;PMS5003;36277;32.852;-116.998;2022-11-04T13:02:13;0.00;0.00;0.00
45700;PMS5003;36277;32.852;-116.998;2022-11-04T13:07:35;0.00;0.00;0.00
45700;PMS5003;36277;32.852;-116.998;2022-11-04T13:10:29;0.00;0.00;0.00
45700;PMS5003;36277;32.852;-116.998;2022-11-04T13:13:19;0.00;0.00;0.00
45700;PMS5003;36277;32.852;-116.998;2022-11-04T13:15:52;0.00;0.00;0.00
45700;PMS5003;36277;32.852;-116.998;2022-11-04T13:18:25;0.00;0.00;0.00
45700;PMS5003;36277;32.852;-116.998;2022-11-04T13:21:03;0.00;0.00;0.00
45700;PMS5003;36277;32.852;-116.998;2022-11-04T13:26:26;0.00;0.00;0.00
45700;PMS5003;36277;32.852;-116.998;2022-11-04T13:29:00;0.00;0.00;0.00
45700;PMS5003;36277;32.852;-116.998;2022-11-04T13:31:53;0.00;0.00;0.00
45700;PMS5003;36277;32.852;-116.998;2022-11-04T13:34:37;0.00;0.00;0.00
45700;PMS5003;36277;32.852;-116.998;2022-11-04T13:40:18;0.00;0.00;0.00
45700;PMS5003;36277;32.852;-116.998;2022-11-04T13:45:57;0.00;0.00;0.00
45700;PMS5003;36277;32.852;-116.998;2022-11-04T13:48:27;0.00;0.00;0.00
45700;PMS5003;36277;32.852;-116.998;2022-11-04T13:53:52;0.00;0.00;0.00
45700;PMS5003;36277;32.852;-116.998;2022-11-04T13:56:26;0.00;0.00;0.00
45700;PMS5003;36277;32.852;-116.998;2022-11-04T13:58:55;0.00;0.00;0.00
45700;PMS5003;36277;32.852;-116.998;2022-11-04T14:01:28;0.00;0.00;0.00
45700;PMS5003;36277;32.852;-116.998;2022-11-04T14:06:51;0.00;0.00;0.00
45700;PMS5003;36277;32.852;-116.998;2022-11-04T14:09:35;0.00;0.00;0.00
45700;PMS5003;36277;32.852;-116.998;2022-11-04T14:14:45;0.00;0.00;0.00
45700;PMS5003;36277;32.852;-116.998;2022-11-04T14:33:27;1.00;1.00;0.75
45700;PMS5003;36277;32.852;-116.998;2022-11-04T14:39:06;0.00;0.00;0.00
45700;PMS5003;36277;32.852;-116.998;2022-11-04T14:41:54;0.80;0.80;0.00
45700;PMS5003;36277;32.852;-116.998;2022-11-04T14:47:28;1.00;1.00;1.00
45700;PMS5003;36277;32.852;-116.998;2022-11-04T14:57:51;0.00;0.00;0.00
45700;PMS5003;36277;32.852;-116.998;2022-11-04T15:03:04;0.00;0.00;0.00
45700;PMS5003;36277;32.852;-116.998;2022-11-04T15:05:34;0.00;0.00;0.00
45700;PMS5003;36277;32.852;-116.998;2022-11-04T15:13:45;17.00;17.00;14.25
45700;PMS5003;36277;32.852;-116.998;2022-11-04T15:16:22;15.25;15.25;12.75
45700;PMS5003;36277;32.852;-116.998;2022-11-04T15:18:54;39.75;35.50;26.00
45700;PMS5003;36277;32.852;-116.998;2022-11-04T15:21:23;65.40;54.40;43.20
45700;PMS5003;36277;32.852;-116.998;2022-11-04T15:23:51;65.20;53.60;44.00
45700;PMS5003;36277;32.852;-116.998;2022-11-04T15:28:48;20.00;20.00;18.50
45700;PMS5003;36277;32.852;-116.998;2022-11-04T15:31:17;23.00;23.00;20.00
45700;PMS5003;36277;32.852;-116.998;2022-11-04T15:33:49;28.75;28.75;22.00
45700;PMS5003;36277;32.852;-116.998;2022-11-04T15:36:22;25.00;25.00;20.75
45700;PMS5003;36277;32.852;-116.998;2022-11-04T15:38:59;27.25;27.25;22.00
45700;PMS5003;36277;32.852;-116.998;2022-11-04T15:41:30;32.50;31.50;25.00
45700;PMS5003;36277;32.852;-116.998;2022-11-04T15:44:24;28.00;28.00;22.25
45700;PMS5003;36277;32.852;-116.998;2022-11-04T15:46:54;25.25;25.25;20.00
45700;PMS5003;36277;32.852;-116.998;2022-11-04T15:49:25;20.50;20.50;19.25
45700;PMS5003;36277;32.852;-116.998;2022-11-04T15:51:57;24.50;24.50;20.25
45700;PMS5003;36277;32.852;-116.998;2022-11-04T15:54:29;20.75;20.75;18.50
45700;PMS5003;36277;32.852;-116.998;2022-11-04T15:57:04;23.50;23.50;20.00
45700;PMS5003;36277;32.852;-116.998;2022-11-04T15:59:37;21.25;21.25;17.25
45700;PMS5003;36277;32.852;-116.998;2022-11-04T16:02:05;19.50;19.50;16.25
45700;PMS5003;36277;32.852;-116.998;2022-11-04T16:05:03;18.75;18.75;16.00
45700;PMS5003;36277;32.852;-116.998;2022-11-04T16:07:51;17.75;17.75;15.50
45700;PMS5003;36277;32.852;-116.998;2022-11-04T16:10:34;13.50;13.50;12.50
45700;PMS5003;36277;32.852;-116.998;2022-11-04T16:13:16;15.00;15.00;13.00
45700;PMS5003;36277;32.852;-116.998;2022-11-04T16:18:42;15.75;15.75;13.00
45700;PMS5003;36277;32.852;-116.998;2022-11-04T16:21:24;17.00;16.25;12.25
45700;PMS5003;36277;32.852;-116.998;2022-11-04T16:23:52;26.25;26.25;18.75
45700;PMS5003;36277;32.852;-116.998;2022-11-04T16:26:36;23.00;23.00;17.00
45700;PMS5003;36277;32.852;-116.998;2022-11-04T16:29:06;22.00;22.00;14.75
45700;PMS5003;36277;32.852;-116.998;2022-11-04T16:31:35;15.75;15.75;11.75
45700;PMS5003;36277;32.852;-116.998;2022-11-04T16:34:02;16.50;16.25;11.75
45700;PMS5003;36277;32.852;-116.998;2022-11-04T16:36:32;19.25;19.25;12.75
45700;PMS5003;36277;32.852;-116.998;2022-11-04T16:38:59;21.00;20.50;13.50
45700;PMS5003;36277;32.852;-116.998;2022-11-04T16:41:33;19.25;18.25;14.00
45700;PMS5003;36277;32.852;-116.998;2022-11-04T16:44:03;14.75;14.75;11.50
45700;PMS5003;36277;32.852;-116.998;2022-11-04T16:46:31;16.00;16.00;10.00
45700;PMS5003;36277;32.852;-116.998;2022-11-04T16:48:58;20.50;20.50;13.50
45700;PMS5003;36277;32.852;-116.998;2022-11-04T16:51:24;20.25;19.00;11.00
45700;PMS5003;36277;32.852;-116.998;2022-11-04T16:53:51;19.25;18.75;13.00
45700;PMS5003;36277;32.852;-116.998;2022-11-04T16:56:20;19.75;18.25;13.50
45700;PMS5003;36277;32.852;-116.998;2022-11-04T16:58:49;25.75;25.75;14.00
45700;PMS5003;36277;32.852;-116.998;2022-11-04T17:01:15;20.00;19.00;12.50
45700;PMS5003;36277;32.852;-116.998;2022-11-04T17:03:43;18.25;18.00;11.25
45700;PMS5003;36277;32.852;-116.998;2022-11-04T17:06:10;22.75;21.75;14.00
45700;PMS5003;36277;32.852;-116.998;2022-11-04T17:08:39;21.75;21.00;12.25